• Join FlightAware (Why Join?)
  • Login
  • US Flag GB Flag 
19:58 EDT


 

Airport Tracker/Info


-or-


 

Live Flight TrackerFlight Track Log ✈ EJA829P ✈ 21-Jul-2013 ✈ KJAC - KASE

Flight Track Log - Related Links

Times and Time Zones

All times are in EDT time to prevent confusion due to time zone crossing. See the EJA829P flight status page for this flight to view local times or setup timezone preferences in your user account.

Time Position Orientation Groundspeed Altitude Reporting Facility
EDT Latitude Longitude Course Direction KTS MPH feet Rate Location/Type
10:49 43.6283 -110.7278 154° Southeast 193 222 7,600  Level Salt Lake Center
10:50 43.6800 -110.6925 26° Northeast 223 257 10,400 2,940 Climbing Salt Lake Center
10:51 43.7392 -110.6394 33° Northeast 249 287 13,700 2,820 Climbing Salt Lake Center
10:52 43.7656 -110.5464 69° East 290 334 16,200 2,160 Climbing Salt Lake Center
10:53 43.6914 -110.4744 145° Southeast 332 382 18,200 1,980 Climbing Salt Lake Center
10:54 43.5730 -110.3430 154° Southeast  Level FlightAware Approximate
10:54 43.5872 -110.4033 154° Southeast 357 411 20,400  Level Salt Lake Center
10:55 43.4933 -110.3328 151° Southeast 376 433 22,400 1,860 Climbing Salt Lake Center
10:56 43.4022 -110.2650 152° Southeast 385 443 24,300 1,860 Climbing Salt Lake Center
10:58 43.2944 -110.1856 152° Southeast 393 452 26,300 1,620 Climbing Salt Lake Center
10:59 43.2028 -110.1217 153° Southeast 405 466 27,700 1,260 Climbing Salt Lake Center
11:00 43.0869 -110.0358 152° Southeast 421 484 29,000 600 Climbing Salt Lake Center
11:01 42.9817 -109.9592 152° Southeast 444 511 29,000  Level Salt Lake Center
11:02 42.8614 -109.8703 152° Southeast 442 509 29,000  Level Salt Lake Center
11:03 42.7550 -109.7919 152° Southeast 434 499 29,000  Level Salt Lake Center
11:04 42.6303 -109.7033 152° Southeast 450 518 29,000  Level Salt Lake Center
11:05 42.5289 -109.6281 151° Southeast 440 506 29,000  Level Salt Lake Center
11:06 42.4336 -109.5597 152° Southeast 410 472 29,000  Level Salt Lake Center
11:07 42.3244 -109.4814 152° Southeast 400 460 29,000  Level Salt Lake Center
11:08 42.2322 -109.4150 152° Southeast 394 453 29,000  Level Salt Lake Center
11:09 42.1269 -109.3403 152° Southeast 385 443 29,000  Level Salt Lake Center
11:10 42.0375 -109.2747 151° Southeast 383 441 29,000  Level Salt Lake Center
11:11 41.9314 -109.2006 153° Southeast 383 441 29,000  Level Salt Lake Center
11:12 41.8403 -109.1367 152° Southeast 385 443 29,000  Level Salt Lake Center
11:13 41.7339 -109.0611 152° Southeast 386 444 29,000  Level Salt Lake Center
11:14 41.6414 -108.9956 152° Southeast 388 447 29,000  Level Salt Lake Center
11:15 41.5483 -108.9294 152° Southeast 390 449 29,000  Level Salt Lake Center
11:16 41.4381 -108.8533 153° Southeast 393 452 29,000  Level Salt Lake Center
11:17 41.3442 -108.7894 153° Southeast 391 450 29,000  Level Salt Lake Center
11:18 41.2358 -108.7133 152° Southeast 391 450 29,000  Level Salt Lake Center
11:19 41.1431 -108.6506 153° Southeast 390 449 29,000  Level Salt Lake Center
11:20 41.0314 -108.5719 152° Southeast 403 464 29,000  Level Denver Center
11:21 40.9167 -108.4942 153° Southeast 412 474 29,000  Level Denver Center
11:22 40.8186 -108.4281 153° Southeast 414 476 29,000  Level Denver Center
11:23 40.7061 -108.3508 153° Southeast 414 476 29,000  Level Denver Center
11:24 40.6072 -108.2847 153° Southeast 414 476 29,000  Level Denver Center
11:26 40.5253 -108.2286 152° Southeast 413 475 29,000 -540 Level Denver Center
11:27 40.3922 -108.1406 153° Southeast 419 482 28,000 -1,200 Descending Denver Center
11:28 40.2883 -108.0700 153° Southeast 431 496 26,600 -1,680 Descending Denver Center
11:29 40.1644 -107.9886 153° Southeast 440 506 24,600 -1,800 Descending Denver Center
11:30 40.0622 -107.9131 150° Southeast 443 510 23,000 -1,740 Descending Denver Center
11:31 39.9794 -107.7772 128° Southeast 427 491 21,100 -1,740 Descending Denver Center
11:32 39.9119 -107.6678 129° Southeast 407 468 19,400 -1,680 Descending Denver Center
11:33 39.8381 -107.5453 128° Southeast 385 443 17,600 -1,200 Descending Denver Center
11:34 39.7647 -107.4244 128° Southeast 380 437 16,800 -360 Descending Denver Center
11:35 39.6897 -107.3003 128° Southeast 388 447 16,800  Level Denver Center
11:36 39.6261 -107.1983 129° Southeast 381 438 16,800 -480 Level Denver Center
11:37 39.5436 -107.0983 137° Southeast 363 418 15,900 -540 Descending Denver Center
11:38 39.4669 -107.0300 145° Southeast 349 402 15,800 -1,200 Descending Denver Center
11:39 39.3822 -106.9806 156° South 319 367 13,300 -2,220 Descending Denver Center
11:41 39.3139 -106.9322 151° Southeast 248 285 10,400 -2,160 Descending Denver Center
11:42 39.2711 -106.8917 144° Southeast 185 213 8,500 -1,020 Descending Denver Center
11:43 39.2331 -106.8797 166° South 176 203 8,300 -240 Descending Denver Center